Terminal Aerodrome Forecast
Issued by NWS Cleveland, OH

Home | Current Version | Previous Version | Text Only | Print | Product List | Glossary On
Versions: 1 2 3 4 5 6 7 8 9 10 11 12 13 14 15 16 17 18 19 20 21 22
000
FTUS41 KCLE 052300
TAFCAK
TAF
KCAK 052332Z 0600/0624 33008KT 6SM HZ VCSH SCT020 BKN045 OVC080
     FM060200 VRB05KT 6SM BR SCT020 OVC045
     FM060400 VRB04KT 3SM BR OVC045
      TEMPO 0609/0613 2SM BR
     FM061600 27005KT P6SM BKN045=

USA.gov is the U.S. government's official web portal to all federal, state and local government web resources and services.